createdAt,value
2022-10-06T00:01:17.399Z,11.45
2022-10-06T00:04:32.331Z,11.30
2022-10-06T00:08:10.284Z,11.37
2022-10-06T00:11:21.312Z,11.39
2022-10-06T00:14:49.724Z,11.30
2022-10-06T00:18:05.288Z,11.34
2022-10-06T00:21:06.931Z,11.33
2022-10-06T00:24:21.263Z,11.32
2022-10-06T00:27:22.872Z,11.18
2022-10-06T00:30:57.324Z,11.34
2022-10-06T00:34:05.892Z,11.21
2022-10-06T00:37:14.318Z,10.99
2022-10-06T00:40:23.508Z,11.02
2022-10-06T00:43:53.261Z,11.03
2022-10-06T00:46:54.909Z,10.99
2022-10-06T00:50:09.286Z,10.83
2022-10-06T00:53:17.810Z,10.61
2022-10-06T00:56:26.289Z,10.53
2022-10-06T00:59:36.715Z,10.50
2022-10-06T01:02:51.314Z,10.36
2022-10-06T01:06:13.331Z,10.39
2022-10-06T01:09:42.376Z,10.24
2022-10-06T01:12:50.263Z,10.17
2022-10-06T01:16:16.094Z,10.06
2022-10-06T01:19:54.275Z,9.98
2022-10-06T01:23:16.713Z,10.09
2022-10-06T01:26:54.286Z,10.07
2022-10-06T01:30:11.537Z,10.01
2022-10-06T01:33:25.351Z,9.92
2022-10-06T01:36:40.366Z,9.95
2022-10-06T01:39:48.768Z,9.92
2022-10-06T01:42:57.295Z,9.89
2022-10-06T01:46:06.471Z,9.77
2022-10-06T01:49:42.293Z,9.83
2022-10-06T01:53:03.846Z,8.93
2022-10-06T01:56:18.289Z,9.84
2022-10-06T01:59:20.119Z,9.76
2022-10-06T02:02:37.450Z,9.81
2022-10-06T02:05:46.079Z,9.74
2022-10-06T02:09:21.287Z,9.50
2022-10-06T02:12:29.824Z,9.71
2022-10-06T02:15:44.379Z,9.75
2022-10-06T02:18:46.027Z,9.74
2022-10-06T02:22:01.279Z,9.76
2022-10-06T02:25:18.271Z,9.69
2022-10-06T02:28:39.787Z,9.57
2022-10-06T02:32:12.363Z,9.55
2022-10-06T02:35:28.287Z,9.59
2022-10-06T02:38:33.569Z,9.58
2022-10-06T02:41:48.318Z,9.53
2022-10-06T02:45:16.331Z,9.58
2022-10-06T02:48:44.611Z,9.54
2022-10-06T02:52:19.400Z,9.57
2022-10-06T02:55:47.864Z,9.49
2022-10-06T02:59:16.311Z,9.58
2022-10-06T03:02:25.172Z,9.44
2022-10-06T03:05:40.328Z,9.51
2022-10-06T03:09:06.073Z,9.32
2022-10-06T03:12:40.312Z,9.43
2022-10-06T03:15:55.475Z,9.53
2022-10-06T03:18:57.862Z,9.50
2022-10-06T03:22:12.667Z,9.51
2022-10-06T03:25:33.507Z,9.58
2022-10-06T03:28:41.933Z,9.73
2022-10-06T03:31:56.316Z,9.56
2022-10-06T03:34:58.683Z,9.46
2022-10-06T03:38:33.326Z,9.20
2022-10-06T03:41:56.647Z,9.25
2022-10-06T03:45:24.299Z,9.26
2022-10-06T03:48:35.680Z,9.22
2022-10-06T03:52:10.453Z,8.91
2022-10-06T03:55:32.008Z,9.09
2022-10-06T03:59:09.599Z,9.01
2022-10-06T04:02:24.375Z,9.20
2022-10-06T04:05:26.145Z,9.13
2022-10-06T04:08:48.312Z,9.02
2022-10-06T04:11:57.046Z,9.18
2022-10-06T04:15:06.351Z,9.21
2022-10-06T04:18:15.910Z,9.15
2022-10-06T04:21:32.297Z,8.84
2022-10-06T04:24:41.330Z,8.97
2022-10-06T04:28:09.672Z,9.16
2022-10-06T04:31:41.357Z,9.05
2022-10-06T04:34:56.318Z,9.03
2022-10-06T04:38:04.893Z,9.01
2022-10-06T04:41:16.307Z,9.10
2022-10-06T04:44:24.831Z,9.13
2022-10-06T04:47:40.336Z,9.03
2022-10-06T04:50:41.943Z,9.01
2022-10-06T04:53:56.328Z,9.04
2022-10-06T04:57:04.354Z,9.02
2022-10-06T05:00:32.731Z,8.93
2022-10-06T05:03:47.362Z,9.03
2022-10-06T05:06:49.223Z,9.03
2022-10-06T05:10:11.323Z,8.95
2022-10-06T05:13:26.580Z,9.10
2022-10-06T05:16:48.137Z,9.03
2022-10-06T05:20:22.346Z,9.30
2022-10-06T05:23:32.753Z,9.32
2022-10-06T05:27:02.003Z,9.54
2022-10-06T05:30:37.624Z,9.72
2022-10-06T05:34:25.763Z,10.09
2022-10-06T05:37:34.423Z,10.34
2022-10-06T05:40:49.331Z,10.54
2022-10-06T05:43:58.578Z,10.61
2022-10-06T06:02:04.514Z,11.61
2022-10-06T06:05:20.376Z,11.42
2022-10-06T06:08:22.928Z,11.45
2022-10-06T06:26:05.516Z,11.42
2022-10-06T06:29:39.843Z,11.28
2022-10-06T06:37:16.059Z,11.37
2022-10-06T07:53:55.548Z,14.00
2022-10-06T07:57:19.543Z,14.23
2022-10-06T08:00:30.008Z,14.17
2022-10-06T08:03:56.404Z,14.81
2022-10-06T08:07:26.387Z,15.17
2022-10-06T08:11:01.831Z,15.18
2022-10-06T08:14:42.590Z,15.61
2022-10-06T08:50:28.608Z,16.95
2022-10-06T09:02:39.530Z,17.98
2022-10-06T09:10:06.825Z,18.22
2022-10-06T10:20:06.521Z,18.51
2022-10-06T10:32:20.886Z,19.19
2022-10-06T10:36:13.548Z,19.55
2022-10-06T12:03:48.787Z,19.50
2022-10-06T12:11:33.447Z,20.02
2022-10-06T12:19:20.318Z,19.79
2022-10-06T12:56:05.010Z,20.14
2022-10-06T13:48:33.610Z,20.06
2022-10-06T13:52:30.844Z,20.06
2022-10-06T13:56:08.468Z,19.46
2022-10-06T14:00:33.714Z,19.48
2022-10-06T14:11:53.647Z,19.50
2022-10-06T14:16:10.181Z,19.51
2022-10-06T14:54:27.036Z,18.82
2022-10-06T16:12:28.666Z,18.05
2022-10-06T16:15:59.738Z,17.99
2022-10-06T16:49:36.158Z,17.60
2022-10-06T16:53:24.204Z,17.42
2022-10-06T16:56:41.674Z,17.20
2022-10-06T17:24:12.975Z,16.97
2022-10-06T17:39:28.926Z,16.97
2022-10-06T17:42:43.798Z,16.82
2022-10-06T18:40:19.740Z,16.34
2022-10-06T18:43:21.537Z,16.04
2022-10-06T18:46:42.676Z,15.94
2022-10-06T18:49:51.319Z,15.89
2022-10-06T18:52:59.897Z,15.75
2022-10-06T18:56:09.128Z,15.69
2022-10-06T18:59:18.667Z,15.68
2022-10-06T19:02:55.690Z,14.92
2022-10-06T19:06:52.732Z,15.58
2022-10-06T19:10:41.936Z,15.53
2022-10-06T19:37:26.952Z,15.25
2022-10-06T19:41:04.417Z,15.31
2022-10-06T20:12:57.228Z,15.49
2022-10-06T20:16:55.806Z,15.52
2022-10-06T20:29:10.680Z,15.38
2022-10-06T20:33:06.492Z,15.14
2022-10-06T20:37:03.727Z,14.99
2022-10-06T20:53:48.951Z,15.07
2022-10-06T20:57:43.968Z,15.08
2022-10-06T21:01:13.116Z,14.84
2022-10-06T21:16:33.462Z,14.92
2022-10-06T22:04:26.749Z,13.91
2022-10-06T22:20:30.189Z,14.41
2022-10-06T22:24:23.005Z,14.34
2022-10-06T22:27:50.757Z,14.30
2022-10-06T23:04:12.745Z,13.87
2022-10-06T23:07:34.266Z,13.95
